Flight Track Log - Related Links

Times and Time Zones

All times are in EDT time to prevent confusion due to time zone crossing. See the TPA841 flight status page for this flight to view local times or setup timezone preferences in your user account.

Time Position Orientation Groundspeed Altitude Reporting Facility
EDT Latitude Longitude Course Direction KTS MPH feet Rate Location/Type
Tue 08:32:57 AM 25.7836 -80.2717 115° Southeast 187 215 1,000  Level Miami Center
Tue 08:33:28 AM 25.7717 -80.2436 115° Southeast 191 220 2,200 1,739 Climbing Miami Center
Tue 08:34:06 AM 25.7600 -80.2089 110° East 239 275 3,000 2,327 Climbing Miami Center
Tue 08:35:06 AM 25.7047 -80.1542 138° Southeast 284 327 6,000 3,000 Climbing Miami Center
Tue 08:36:06 AM 25.6283 -80.1222 159° South 287 330 9,000 2,450 Climbing Miami Center
Tue 08:37:06 AM 25.5494 -80.0903 160° South 302 348 10,900 1,850 Climbing Miami Center
Tue 08:38:06 AM 25.4503 -80.0506 160° South 341 392 12,700 2,200 Climbing Miami Center
Tue 08:39:06 AM 25.3444 -80.0067 159° South 381 438 15,300 2,600 Climbing Miami Center
Tue 08:40:06 AM 25.2433 -79.9489 153° Southeast 401 461 17,900 2,250 Climbing Miami Center
Tue 08:41:06 AM 25.1425 -79.8750 146° Southeast 412 474 19,800 2,000 Climbing Miami Center
Tue 08:42:06 AM 25.0417 -79.8017 147° Southeast 434 499 21,900 2,100 Climbing Miami Center
Tue 08:43:06 AM 24.9325 -79.7256 148° Southeast 449 517 24,000 1,900 Climbing Miami Center
Tue 08:44:06 AM 24.8231 -79.6497 148° Southeast 455 524 25,700 1,700 Climbing Miami Center
Tue 08:45:06 AM 24.7097 -79.5672 147° Southeast 473 544 27,400 1,700 Climbing Miami Center
Tue 08:46:06 AM 24.5900 -79.4869 149° Southeast 485 558 29,100 1,850 Climbing Miami Center
Tue 08:47:06 AM 24.4767 -79.4000 145° Southeast 497 572 31,100 1,900 Climbing Miami Center
Tue 08:48:06 AM 24.3589 -79.3225 149° Southeast 497 572 32,900 1,550 Climbing Miami Center
Tue 08:49:06 AM 24.2431 -79.2403 147° Southeast 497 572 34,200 1,050 Climbing Miami Center
Tue 08:50:06 AM 24.1253 -79.1583 148° Southeast 497 572 35,000 400 Climbing Miami Center
Tue 08:51:06 AM 24.0053 -79.0789 149° Southeast 497 572 35,000  Level Miami Center
Tue 08:53:00 AM 23.8198 -78.9190 143° Southeast  Level FlightAware Approximate
Tue 09:00:00 AM 23.1215 -78.3507 143° Southeast  Level FlightAware Approximate
Tue 09:01:00 AM 23.0215 -78.2700 143° Southeast  Level FlightAware Approximate
Tue 09:02:00 AM 22.9216 -78.1894 143° Southeast  Level FlightAware Approximate
Tue 09:03:00 AM 22.8215 -78.1090 143° Southeast  Level FlightAware Approximate
Tue 09:04:00 AM 22.7215 -78.0286 143° Southeast  Level FlightAware Approximate
Tue 09:05:00 AM 22.6214 -77.9484 144° Southeast  Level FlightAware Approximate
Tue 09:06:00 AM 22.5213 -77.8683 144° Southeast  Level FlightAware Approximate
Tue 09:07:00 AM 22.4211 -77.7883 144° Southeast  Level FlightAware Approximate
Tue 09:08:00 AM 22.3209 -77.7084 144° Southeast  Level FlightAware Approximate
Tue 09:09:00 AM 22.2206 -77.6287 144° Southeast  Level FlightAware Approximate
Tue 09:10:00 AM 22.1203 -77.5490 144° Southeast  Level FlightAware Approximate
Tue 09:11:00 AM 22.0200 -77.4695 144° Southeast  Level FlightAware Approximate
Tue 09:12:00 AM 21.9196 -77.3901 144° Southeast  Level FlightAware Approximate
Tue 09:13:00 AM 21.8192 -77.3108 144° Southeast  Level FlightAware Approximate
Tue 09:14:00 AM 21.7188 -77.2316 144° Southeast  Level FlightAware Approximate
Tue 09:15:00 AM 21.6183 -77.1525 144° Southeast  Level FlightAware Approximate
Tue 09:16:00 AM 21.5178 -77.0735 144° Southeast  Level FlightAware Approximate
Tue 09:17:00 AM 21.4172 -76.9947 144° Southeast  Level FlightAware Approximate
Tue 09:18:00 AM 21.3166 -76.9159 144° Southeast  Level FlightAware Approximate
Tue 09:19:00 AM 21.2160 -76.8373 144° Southeast  Level FlightAware Approximate
Tue 09:20:00 AM 21.1153 -76.7588 144° Southeast  Level FlightAware Approximate
Tue 09:21:00 AM 21.0146 -76.6803 144° Southeast  Level FlightAware Approximate
Tue 09:22:00 AM 20.9139 -76.6020 144° Southeast  Level FlightAware Approximate
Tue 09:23:00 AM 20.8131 -76.5238 144° Southeast  Level FlightAware Approximate
Tue 09:24:00 AM 20.7123 -76.4456 144° Southeast  Level FlightAware Approximate
Tue 09:25:00 AM 20.6115 -76.3676 144° Southeast  Level FlightAware Approximate
Tue 09:26:00 AM 20.5106 -76.2897 144° Southeast  Level FlightAware Approximate
Tue 09:27:00 AM 20.4097 -76.2119 144° Southeast  Level FlightAware Approximate
Tue 09:28:00 AM 20.3087 -76.1342 144° Southeast  Level FlightAware Approximate
Tue 09:29:00 AM 20.2078 -76.0566 144° Southeast  Level FlightAware Approximate
Tue 09:30:00 AM 20.1067 -75.9791 144° Southeast  Level FlightAware Approximate
Tue 09:31:00 AM 20.0057 -75.9017 144° Southeast  Level FlightAware Approximate
Tue 09:32:00 AM 19.9046 -75.8244 144° Southeast  Level FlightAware Approximate
Tue 09:33:00 AM 19.8035 -75.7472 144° Southeast  Level FlightAware Approximate
Tue 09:34:00 AM 19.7023 -75.6701 144° Southeast  Level FlightAware Approximate
Tue 09:35:00 AM 19.6012 -75.5931 144° Southeast  Level FlightAware Approximate
Tue 09:36:00 AM 19.4999 -75.5162 144° Southeast  Level FlightAware Approximate
Tue 09:37:00 AM 19.3987 -75.4393 144° Southeast  Level FlightAware Approximate
Tue 09:38:00 AM 19.2974 -75.3626 144° Southeast  Level FlightAware Approximate
Tue 09:39:00 AM 19.1961 -75.2860 144° Southeast  Level FlightAware Approximate
Tue 09:40:00 AM 19.0948 -75.2095 144° Southeast  Level FlightAware Approximate
Tue 09:41:00 AM 18.9934 -75.1330 145° Southeast  Level FlightAware Approximate
Tue 09:42:00 AM 18.8920 -75.0567 145° Southeast  Level FlightAware Approximate
Tue 09:43:00 AM 18.7905 -74.9804 145° Southeast  Level FlightAware Approximate
Tue 09:44:00 AM 18.6891 -74.9043 145° Southeast  Level FlightAware Approximate
Tue 09:45:00 AM 18.5876 -74.8281 144° Southeast  Level FlightAware Approximate
Tue 09:46:00 AM 18.4862 -74.7519 144° Southeast  Level FlightAware Approximate
Tue 09:47:00 AM 18.3848 -74.6757 145° Southeast  Level FlightAware Approximate
Tue 09:48:00 AM 18.2834 -74.5997 145° Southeast  Level FlightAware Approximate
Tue 09:49:00 AM 18.1819 -74.5237 145° Southeast  Level FlightAware Approximate
Tue 09:50:00 AM 18.0805 -74.4479 145° Southeast  Level FlightAware Approximate
Tue 09:51:00 AM 17.9789 -74.3721 145° Southeast  Level FlightAware Approximate
Tue 09:52:00 AM 17.8773 -74.2965 145° Southeast  Level FlightAware Approximate
Tue 09:53:00 AM 17.7757 -74.2210 145° Southeast  Level FlightAware Approximate
Tue 09:54:00 AM 17.6740 -74.1455 145° Southeast  Level FlightAware Approximate
Tue 09:55:00 AM 17.5724 -74.0701 145° Southeast  Level FlightAware Approximate
Tue 09:56:00 AM 17.4707 -73.9948 145° Southeast  Level FlightAware Approximate
Tue 09:57:00 AM 17.3689 -73.9196 145° Southeast  Level FlightAware Approximate
Tue 09:58:00 AM 17.2672 -73.8445 145° Southeast  Level FlightAware Approximate
Tue 09:59:00 AM 17.1654 -73.7695 145° Southeast  Level FlightAware Approximate
Tue 10:00:00 AM 17.0636 -73.6945 145° Southeast  Level FlightAware Approximate
Tue 10:01:00 AM 16.9618 -73.6196 145° Southeast  Level FlightAware Approximate
Tue 10:02:00 AM 16.8599 -73.5448 145° Southeast  Level FlightAware Approximate
Tue 10:03:00 AM 16.7580 -73.4701 145° Southeast  Level FlightAware Approximate
Tue 10:04:00 AM 16.6561 -73.3955 145° Southeast  Level FlightAware Approximate
Tue 10:05:00 AM 16.5545 -73.3204 144° Southeast  Level FlightAware Approximate
Tue 10:06:00 AM 16.4532 -73.2449 144° Southeast  Level FlightAware Approximate
Tue 10:07:00 AM 16.3519 -73.1695 144° Southeast  Level FlightAware Approximate
Tue 10:08:00 AM 16.2505 -73.0943 145° Southeast  Level FlightAware Approximate
Tue 10:09:00 AM 16.1491 -73.0191 145° Southeast  Level FlightAware Approximate
Tue 10:10:00 AM 16.0476 -72.9439 145° Southeast  Level FlightAware Approximate
Tue 10:11:00 AM 15.9456 -72.8698 145° Southeast  Level FlightAware Approximate
Tue 10:12:00 AM 15.8434 -72.7958 145° Southeast  Level FlightAware Approximate
Tue 10:13:00 AM 15.7412 -72.7219 145° Southeast  Level FlightAware Approximate
Tue 10:14:00 AM 15.6390 -72.6482 145° Southeast  Level FlightAware Approximate
Tue 10:15:00 AM 15.5367 -72.5744 145° Southeast  Level FlightAware Approximate
Tue 10:16:00 AM 15.4344 -72.5008 145° Southeast  Level FlightAware Approximate
Tue 10:17:00 AM 15.3322 -72.4271 145° Southeast  Level FlightAware Approximate
Tue 10:18:00 AM 15.2300 -72.3535 145° Southeast  Level FlightAware Approximate
Tue 10:19:00 AM 15.1277 -72.2799 145° Southeast  Level FlightAware Approximate
Tue 10:20:00 AM 15.0254 -72.2065 145° Southeast  Level FlightAware Approximate
Tue 10:21:00 AM 14.9231 -72.1330 145° Southeast  Level FlightAware Approximate
Tue 10:22:00 AM 14.8208 -72.0597 145° Southeast  Level FlightAware Approximate
Tue 10:23:00 AM 14.7184 -71.9864 145° Southeast  Level FlightAware Approximate
Tue 10:24:00 AM 14.6160 -71.9132 145° Southeast  Level FlightAware Approximate
Tue 10:25:00 AM 14.5136 -71.8401 145° Southeast  Level FlightAware Approximate
Tue 10:26:00 AM 14.4112 -71.7670 145° Southeast  Level FlightAware Approximate
Tue 10:27:00 AM 14.3087 -71.6940 145° Southeast  Level FlightAware Approximate
Tue 10:28:00 AM 14.2062 -71.6211 145° Southeast  Level FlightAware Approximate
Tue 10:29:00 AM 14.1037 -71.5482 145° Southeast  Level FlightAware Approximate
Tue 10:30:00 AM 14.0012 -71.4754 145° Southeast  Level FlightAware Approximate
Tue 10:31:00 AM 13.8987 -71.4027 145° Southeast  Level FlightAware Approximate
Tue 10:32:00 AM 13.7961 -71.3300 145° Southeast  Level FlightAware Approximate
Tue 10:33:00 AM 13.6935 -71.2574 145° Southeast  Level FlightAware Approximate
Tue 10:34:00 AM 13.5909 -71.1849 146° Southeast  Level FlightAware Approximate
Tue 10:35:00 AM 13.4883 -71.1124 146° Southeast  Level FlightAware Approximate
Tue 10:36:00 AM 13.3856 -71.0400 146° Southeast  Level FlightAware Approximate
Tue 10:37:00 AM 13.2830 -70.9676 146° Southeast  Level FlightAware Approximate
Tue 10:38:00 AM 13.1803 -70.8953 146° Southeast  Level FlightAware Approximate
Tue 10:39:00 AM 13.0775 -70.8231 146° Southeast  Level FlightAware Approximate
Tue 10:40:00 AM 12.9748 -70.7509 146° Southeast  Level FlightAware Approximate
Tue 10:41:00 AM 12.8721 -70.6788 146° Southeast  Level FlightAware Approximate
Tue 10:42:00 AM 12.7693 -70.6068 146° Southeast  Level FlightAware Approximate
Tue 10:43:00 AM 12.6665 -70.5348 146° Southeast  Level FlightAware Approximate
Tue 10:44:00 AM 12.5637 -70.4628 146° Southeast  Level FlightAware Approximate
Tue 10:45:00 AM 12.4609 -70.3909 146° Southeast  Level FlightAware Approximate
Tue 10:46:00 AM 12.3578 -70.3194 146° Southeast  Level FlightAware Approximate
Tue 10:47:00 AM 12.2548 -70.2479 146° Southeast  Level FlightAware Approximate
Tue 10:48:00 AM 12.1517 -70.1766 146° Southeast  Level FlightAware Approximate
Tue 10:49:00 AM 12.0485 -70.1052 146° Southeast  Level FlightAware Approximate
Tue 10:50:00 AM 11.9454 -70.0340 146° Southeast  Level FlightAware Approximate
Tue 10:51:00 AM 11.8423 -69.9627 146° Southeast  Level FlightAware Approximate
Tue 10:52:00 AM 11.7391 -69.8915 146° Southeast  Level FlightAware Approximate
Tue 10:53:00 AM 11.6359 -69.8204 146° Southeast  Level FlightAware Approximate
Tue 10:54:00 AM 11.5327 -69.7494 146° Southeast  Level FlightAware Approximate
Tue 10:55:00 AM 11.4295 -69.6784 146° Southeast  Level FlightAware Approximate
Tue 10:56:00 AM 11.3262 -69.6074 146° Southeast  Level FlightAware Approximate
Tue 10:57:00 AM 11.2230 -69.5365 146° Southeast  Level FlightAware Approximate
Tue 10:58:00 AM 11.1197 -69.4656 146° Southeast  Level FlightAware Approximate
Tue 10:59:00 AM 11.0164 -69.3948 146° Southeast  Level FlightAware Approximate
Tue 11:00:00 AM 10.9131 -69.3241 146° Southeast  Level FlightAware Approximate
Tue 11:01:00 AM 10.8098 -69.2533 146° Southeast  Level FlightAware Approximate
Tue 11:02:00 AM 10.7065 -69.1827 146° Southeast  Level FlightAware Approximate
Tue 11:03:00 AM 10.6031 -69.1121 146° Southeast  Level FlightAware Approximate
Tue 11:04:00 AM 10.4997 -69.0415 146° Southeast  Level FlightAware Approximate
Tue 11:05:00 AM 10.3963 -68.9710 146° Southeast  Level FlightAware Approximate
Tue 11:06:00 AM 10.2931 -68.9003 146° Southeast  Level FlightAware Approximate
Tue 11:07:00 AM 10.1902 -68.8291 146° Southeast  Level FlightAware Approximate
Tue 11:08:00 AM 10.0872 -68.7580 146° Southeast  Level FlightAware Approximate
Tue 11:09:00 AM 9.9843 -68.6869 146° Southeast  Level FlightAware Approximate
Tue 11:10:00 AM 9.8814 -68.6158 146° Southeast  Level FlightAware Approximate
Tue 11:11:00 AM 9.7784 -68.5448 146° Southeast  Level FlightAware Approximate
Tue 11:12:00 AM 9.6754 -68.4738 146° Southeast  Level FlightAware Approximate
Tue 11:13:00 AM 9.5722 -68.4033 146° Southeast  Level FlightAware Approximate
Tue 11:14:00 AM 9.4686 -68.3333 146° Southeast  Level FlightAware Approximate
Tue 11:15:00 AM 9.3650 -68.2633 146° Southeast  Level FlightAware Approximate
Tue 11:16:00 AM 9.2613 -68.1934 146° Southeast  Level FlightAware Approximate
Tue 11:17:00 AM 9.1577 -68.1235 146° Southeast  Level FlightAware Approximate
Tue 11:18:00 AM 9.0541 -68.0537 146° Southeast  Level FlightAware Approximate
Tue 11:19:00 AM 8.9504 -67.9839 146° Southeast  Level FlightAware Approximate
Tue 11:20:00 AM 8.8468 -67.9140 146° Southeast  Level FlightAware Approximate
Tue 11:21:00 AM 8.7433 -67.8439 146° Southeast  Level FlightAware Approximate
Tue 11:22:00 AM 8.6398 -67.7739 146° Southeast  Level FlightAware Approximate
Tue 11:23:00 AM 8.5364 -67.7040 146° Southeast  Level FlightAware Approximate
Tue 11:24:00 AM 8.4328 -67.6341 146° Southeast  Level FlightAware Approximate
Tue 11:25:00 AM 8.3293 -67.5642 146° Southeast  Level FlightAware Approximate
Tue 11:26:00 AM 8.2258 -67.4943 146° Southeast  Level FlightAware Approximate
Tue 11:27:00 AM 8.1222 -67.4245 146° Southeast  Level FlightAware Approximate
Tue 11:28:00 AM 8.0187 -67.3548 146° Southeast  Level FlightAware Approximate
Tue 11:29:00 AM 7.9151 -67.2850 146° Southeast  Level FlightAware Approximate
Tue 11:30:00 AM 7.8115 -67.2153 146° Southeast  Level FlightAware Approximate
Tue 11:31:00 AM 7.7079 -67.1456 146° Southeast  Level FlightAware Approximate
Tue 11:32:00 AM 7.6043 -67.0760 146° Southeast  Level FlightAware Approximate
Tue 11:33:00 AM 7.5006 -67.0064 146° Southeast  Level FlightAware Approximate
Tue 11:34:00 AM 7.3970 -66.9368 146° Southeast  Level FlightAware Approximate
Tue 11:35:00 AM 7.2934 -66.8673 146° Southeast  Level FlightAware Approximate
Tue 11:36:00 AM 7.1897 -66.7978 146° Southeast  Level FlightAware Approximate
Tue 11:37:00 AM 7.0861 -66.7283 146° Southeast  Level FlightAware Approximate
Tue 11:38:00 AM 6.9824 -66.6589 146° Southeast  Level FlightAware Approximate
Tue 11:39:00 AM 6.8787 -66.5895 146° Southeast  Level FlightAware Approximate
Tue 11:40:00 AM 6.7750 -66.5201 146° Southeast  Level FlightAware Approximate
Tue 11:41:00 AM 6.6713 -66.4508 146° Southeast  Level FlightAware Approximate
Tue 11:42:00 AM 6.5676 -66.3814 146° Southeast  Level FlightAware Approximate
Tue 11:43:00 AM 6.4639 -66.3121 146° Southeast  Level FlightAware Approximate
Tue 11:44:00 AM 6.3602 -66.2429 146° Southeast  Level FlightAware Approximate
Tue 11:45:00 AM 6.2564 -66.1737 146° Southeast  Level FlightAware Approximate
Tue 11:46:00 AM 6.1527 -66.1044 146° Southeast  Level FlightAware Approximate
Tue 11:47:00 AM 6.0489 -66.0353 146° Southeast  Level FlightAware Approximate
Tue 11:48:00 AM 5.9451 -65.9661 146° Southeast  Level FlightAware Approximate
Tue 11:49:00 AM 5.8414 -65.8970 146° Southeast  Level FlightAware Approximate
Tue 11:50:00 AM 5.7376 -65.8279 146° Southeast  Level FlightAware Approximate
Tue 11:51:00 AM 5.6338 -65.7588 146° Southeast  Level FlightAware Approximate
Tue 11:52:00 AM 5.5300 -65.6898 146° Southeast  Level FlightAware Approximate
Tue 11:53:00 AM 5.4262 -65.6207 146° Southeast  Level FlightAware Approximate
Tue 11:54:00 AM 5.3224 -65.5517 147° Southeast  Level FlightAware Approximate
Tue 11:55:00 AM 5.2185 -65.4827 147° Southeast  Level FlightAware Approximate
Tue 11:56:00 AM 5.1147 -65.4138 147° Southeast  Level FlightAware Approximate
Tue 11:57:00 AM 5.0109 -65.3449 147° Southeast  Level FlightAware Approximate
Tue 11:58:00 AM 4.9070 -65.2759 147° Southeast  Level FlightAware Approximate
Tue 11:59:00 AM 4.8032 -65.2071 147° Southeast  Level FlightAware Approximate
Tue 12:00:00 PM 4.6993 -65.1382 147° Southeast  Level FlightAware Approximate
Tue 12:01:00 PM 4.5954 -65.0693 147° Southeast  Level FlightAware Approximate
Tue 12:02:00 PM 4.4915 -65.0005 147° Southeast  Level FlightAware Approximate
Tue 12:03:00 PM 4.3877 -64.9317 147° Southeast  Level FlightAware Approximate
Tue 12:04:00 PM 4.2838 -64.8629 147° Southeast  Level FlightAware Approximate
Tue 12:05:00 PM 4.1799 -64.7941 147° Southeast  Level FlightAware Approximate
Tue 12:06:00 PM 4.0760 -64.7254 147° Southeast  Level FlightAware Approximate
Tue 12:07:00 PM 3.9721 -64.6566 147° Southeast  Level FlightAware Approximate
Tue 12:08:00 PM 3.8682 -64.5879 147° Southeast  Level FlightAware Approximate
Tue 12:09:00 PM 3.7642 -64.5192 147° Southeast  Level FlightAware Approximate
Tue 12:10:00 PM 3.6603 -64.4505 147° Southeast  Level FlightAware Approximate
Tue 12:11:00 PM 3.5564 -64.3819 147° Southeast  Level FlightAware Approximate
Tue 12:12:00 PM 3.4525 -64.3132 147° Southeast  Level FlightAware Approximate
Tue 12:13:00 PM 3.3485 -64.2446 147° Southeast  Level FlightAware Approximate
Tue 12:14:00 PM 3.2446 -64.1759 147° Southeast  Level FlightAware Approximate
Tue 12:15:00 PM 3.1406 -64.1073 147° Southeast  Level FlightAware Approximate
Tue 12:16:00 PM 3.0367 -64.0387 147° Southeast  Level FlightAware Approximate
Tue 12:17:00 PM 2.9327 -63.9702 147° Southeast  Level FlightAware Approximate
Tue 12:18:00 PM 2.8288 -63.9016 147° Southeast  Level FlightAware Approximate
Tue 12:19:00 PM 2.7248 -63.8330 147° Southeast  Level FlightAware Approximate
Tue 12:20:00 PM 2.6208 -63.7645 147° Southeast  Level FlightAware Approximate
Tue 12:21:00 PM 2.5169 -63.6959 147° Southeast  Level FlightAware Approximate
Tue 12:22:00 PM 2.4129 -63.6274 147° Southeast  Level FlightAware Approximate
Tue 12:23:00 PM 2.3089 -63.5589 147° Southeast  Level FlightAware Approximate
Tue 12:24:00 PM 2.2049 -63.4904 147° Southeast  Level FlightAware Approximate
Tue 12:25:00 PM 2.1009 -63.4219 147° Southeast  Level FlightAware Approximate
Tue 12:26:00 PM 1.9969 -63.3534 147° Southeast  Level FlightAware Approximate
Tue 12:27:00 PM 1.8930 -63.2849 147° Southeast  Level FlightAware Approximate
Tue 12:28:00 PM 1.7890 -63.2165 147° Southeast  Level FlightAware Approximate
Tue 12:29:00 PM 1.6850 -63.1480 147° Southeast  Level FlightAware Approximate
Tue 12:30:00 PM 1.5810 -63.0796 147° Southeast  Level FlightAware Approximate
Tue 12:31:00 PM 1.4770 -63.0111 147° Southeast  Level FlightAware Approximate
Tue 12:32:00 PM 1.3730 -62.9427 147° Southeast  Level FlightAware Approximate
Tue 12:33:00 PM 1.2689 -62.8742 147° Southeast  Level FlightAware Approximate
Tue 12:34:00 PM 1.1649 -62.8058 147° Southeast  Level FlightAware Approximate
Tue 12:35:00 PM 1.0609 -62.7374 147° Southeast  Level FlightAware Approximate
Tue 12:36:00 PM 0.9569 -62.6690 147° Southeast  Level FlightAware Approximate
Tue 12:37:00 PM 0.8529 -62.6006 147° Southeast  Level FlightAware Approximate
Tue 12:38:00 PM 0.7489 -62.5321 147° Southeast  Level FlightAware Approximate
Tue 12:39:00 PM 0.6449 -62.4637 147° Southeast  Level FlightAware Approximate
Tue 12:40:00 PM 0.5409 -62.3953 147° Southeast  Level FlightAware Approximate
Tue 12:41:00 PM 0.4369 -62.3269 147° Southeast  Level FlightAware Approximate
Tue 12:42:00 PM 0.3328 -62.2585 147° Southeast  Level FlightAware Approximate
Tue 12:43:00 PM 0.2288 -62.1901 147° Southeast  Level FlightAware Approximate
Tue 12:44:00 PM 0.1248 -62.1217 147° Southeast  Level FlightAware Approximate
Tue 12:45:00 PM 0.0208 -62.0533 147° Southeast  Level FlightAware Approximate
Tue 12:46:00 PM -0.0833 -61.9849 147° Southeast  Level FlightAware Approximate
Tue 12:47:00 PM -0.1873 -61.9165 147° Southeast  Level FlightAware Approximate
Tue 12:48:00 PM -0.2913 -61.8481 147° Southeast  Level FlightAware Approximate
Tue 12:49:00 PM -0.3953 -61.7797 147° Southeast  Level FlightAware Approximate
Tue 12:50:00 PM -0.4993 -61.7113 147° Southeast  Level FlightAware Approximate
Tue 12:51:00 PM -0.6033 -61.6429 147° Southeast  Level FlightAware Approximate
Tue 12:52:00 PM -0.7074 -61.5745 147° Southeast  Level FlightAware Approximate
Tue 12:53:00 PM -0.8114 -61.5061 147° Southeast  Level FlightAware Approximate
Tue 12:54:00 PM -0.9154 -61.4377 147° Southeast  Level FlightAware Approximate
Tue 12:55:00 PM -1.0194 -61.3693 147° Southeast  Level FlightAware Approximate
Tue 12:56:00 PM -1.1234 -61.3008 147° Southeast  Level FlightAware Approximate
Tue 12:57:00 PM -1.2246 -61.2283 148° Southeast  Level FlightAware Approximate
Tue 12:58:00 PM -1.3296 -61.1615 148° Southeast  Level FlightAware Approximate
Tue 12:59:00 PM -1.4334 -61.0928 144° Southeast  Level FlightAware Approximate
Tue 01:00:00 PM -1.5365 -61.0234 153° Southeast  Level FlightAware Approximate
Tue 01:01:00 PM -1.6403 -60.9557 142° Southeast  Level FlightAware Approximate
Tue 01:02:00 PM -1.7390 -60.8798 148° Southeast  Level FlightAware Approximate
Tue 01:03:00 PM -1.8445 -60.8138 148° Southeast  Level FlightAware Approximate
Tue 01:04:00 PM -1.9521 -60.7512 150° Southeast  Level FlightAware Approximate
Tue 01:05:00 PM -2.0554 -60.6819 144° Southeast  Level FlightAware Approximate
Tue 01:06:00 PM -2.1580 -60.6113 146° Southeast  Level FlightAware Approximate
Tue 01:07:00 PM -2.2616 -60.5423 146° Southeast  Level FlightAware Approximate
Tue 01:08:00 PM -2.3652 -60.4732 146° Southeast  Level FlightAware Approximate
Tue 01:09:00 PM -2.4688 -60.4041 146° Southeast  Level FlightAware Approximate
Tue 01:10:00 PM -2.5735 -60.3366 148° Southeast  Level FlightAware Approximate
Tue 01:11:00 PM -2.6785 -60.2697 148° Southeast  Level FlightAware Approximate
Tue 01:12:00 PM -2.7845 -60.2048 146° Southeast  Level FlightAware Approximate
Tue 01:13:00 PM -2.8845 -60.1324 143° Southeast  Level FlightAware Approximate
Tue 01:14:00 PM -2.9882 -60.0642 153° Southeast  Level FlightAware Approximate
Tue 01:15:00 PM -3.0167 -60.0500 153° Southeast  Level FlightAware Approximate
Tue 01:16:00 PM -3.0386 -60.0497 153° Southeast  Level Estimated
Tue 01:17:00 PM -3.0386 -60.0497 153° Southeast  Level Estimated
Tue 01:18:00 PM -3.0386 -60.0497 153° Southeast  Level Estimated
Tue 01:19:00 PM -3.0386 -60.0497 153° Southeast  Level Estimated
Tue 01:20:00 PM -3.0386 -60.0497 153° Southeast  Level Estimated
Tue 01:21:00 PM -3.0386 -60.0497 153° Southeast  Level Estimated
Tue 01:22:00 PM -3.0386 -60.0497 153° Southeast  Level Estimated
Tue 01:23:00 PM -3.0386 -60.0497 153° Southeast  Level Estimated
Tue 01:24:00 PM -3.0386 -60.0497 153° Southeast  Level Estimated
Tue 01:25:00 PM -3.0386 -60.0497 153° Southeast  Level Estimated
Tue 01:26:00 PM -3.0386 -60.0497 153° Southeast  Level Estimated
Tue 01:27:00 PM -3.0386 -60.0497 153° Southeast  Level Estimated
Tue 01:28:00 PM -3.0386 -60.0497 153° Southeast  Level Estimated

Login

Don't have an account? Register now (free) for customized features, flight alerts, and more!